sensor_id;sensor_type;location;lat;lon;timestamp;P1;durP1;ratioP1;P2;durP2;ratioP2
52031;SDS011;38044;45.148;39.604;2023-04-09T00:00:34;10.55;;;7.65;;
52031;SDS011;38044;45.148;39.604;2023-04-09T00:03:00;11.80;;;7.35;;
52031;SDS011;38044;45.148;39.604;2023-04-09T00:05:26;9.88;;;6.18;;
52031;SDS011;38044;45.148;39.604;2023-04-09T00:07:52;10.55;;;6.85;;
52031;SDS011;38044;45.148;39.604;2023-04-09T00:10:17;7.85;;;6.03;;
52031;SDS011;38044;45.148;39.604;2023-04-09T00:12:43;13.00;;;6.38;;
52031;SDS011;38044;45.148;39.604;2023-04-09T00:15:10;8.82;;;6.20;;
52031;SDS011;38044;45.148;39.604;2023-04-09T00:17:35;9.52;;;6.55;;
52031;SDS011;38044;45.148;39.604;2023-04-09T00:20:01;9.82;;;5.97;;
52031;SDS011;38044;45.148;39.604;2023-04-09T00:22:28;6.75;;;5.72;;
52031;SDS011;38044;45.148;39.604;2023-04-09T00:24:54;8.43;;;6.03;;
52031;SDS011;38044;45.148;39.604;2023-04-09T00:27:21;10.52;;;5.88;;
52031;SDS011;38044;45.148;39.604;2023-04-09T00:29:47;13.60;;;5.95;;
52031;SDS011;38044;45.148;39.604;2023-04-09T00:32:13;9.93;;;6.22;;
52031;SDS011;38044;45.148;39.604;2023-04-09T00:34:39;10.65;;;6.10;;
52031;SDS011;38044;45.148;39.604;2023-04-09T00:37:05;9.00;;;6.22;;
52031;SDS011;38044;45.148;39.604;2023-04-09T00:39:31;10.10;;;5.82;;
52031;SDS011;38044;45.148;39.604;2023-04-09T00:41:57;7.97;;;6.00;;
52031;SDS011;38044;45.148;39.604;2023-04-09T00:44:26;8.25;;;5.85;;
52031;SDS011;38044;45.148;39.604;2023-04-09T00:46:52;6.93;;;5.57;;
52031;SDS011;38044;45.148;39.604;2023-04-09T00:49:19;9.82;;;5.50;;
52031;SDS011;38044;45.148;39.604;2023-04-09T00:51:45;6.90;;;5.60;;
52031;SDS011;38044;45.148;39.604;2023-04-09T00:54:12;9.18;;;5.95;;
52031;SDS011;38044;45.148;39.604;2023-04-09T00:56:38;9.30;;;5.95;;
52031;SDS011;38044;45.148;39.604;2023-04-09T00:59:06;8.65;;;5.97;;
52031;SDS011;38044;45.148;39.604;2023-04-09T01:01:32;10.57;;;5.68;;
52031;SDS011;38044;45.148;39.604;2023-04-09T01:03:58;7.35;;;5.68;;
52031;SDS011;38044;45.148;39.604;2023-04-09T01:14:31;9.02;;;6.20;;
52031;SDS011;38044;45.148;39.604;2023-04-09T01:17:16;9.23;;;5.88;;
52031;SDS011;38044;45.148;39.604;2023-04-09T01:19:51;9.30;;;5.65;;
52031;SDS011;38044;45.148;39.604;2023-04-09T01:22:44;11.02;;;6.10;;
52031;SDS011;38044;45.148;39.604;2023-04-09T01:28:44;12.43;;;6.70;;
52031;SDS011;38044;45.148;39.604;2023-04-09T01:31:14;8.60;;;6.43;;
52031;SDS011;38044;45.148;39.604;2023-04-09T01:33:45;11.88;;;8.43;;
52031;SDS011;38044;45.148;39.604;2023-04-09T01:36:12;10.95;;;7.85;;
52031;SDS011;38044;45.148;39.604;2023-04-09T01:38:39;13.23;;;8.30;;
52031;SDS011;38044;45.148;39.604;2023-04-09T01:41:08;14.73;;;10.10;;
52031;SDS011;38044;45.148;39.604;2023-04-09T01:43:36;7.63;;;5.68;;
52031;SDS011;38044;45.148;39.604;2023-04-09T01:46:02;10.30;;;7.13;;
52031;SDS011;38044;45.148;39.604;2023-04-09T01:48:29;9.52;;;7.22;;
52031;SDS011;38044;45.148;39.604;2023-04-09T01:50:57;9.02;;;8.07;;
52031;SDS011;38044;45.148;39.604;2023-04-09T01:53:23;8.63;;;7.50;;
52031;SDS011;38044;45.148;39.604;2023-04-09T01:55:53;9.02;;;7.32;;
52031;SDS011;38044;45.148;39.604;2023-04-09T01:58:22;9.20;;;6.43;;
52031;SDS011;38044;45.148;39.604;2023-04-09T02:00:48;9.32;;;6.05;;
52031;SDS011;38044;45.148;39.604;2023-04-09T02:06:33;9.52;;;6.95;;
52031;SDS011;38044;45.148;39.604;2023-04-09T02:08:47;9.52;;;8.05;;
52031;SDS011;38044;45.148;39.604;2023-04-09T02:11:18;12.32;;;9.57;;
52031;SDS011;38044;45.148;39.604;2023-04-09T02:13:48;11.45;;;9.73;;
52031;SDS011;38044;45.148;39.604;2023-04-09T02:16:16;13.25;;;8.55;;
52031;SDS011;38044;45.148;39.604;2023-04-09T02:18:42;9.55;;;7.10;;
52031;SDS011;38044;45.148;39.604;2023-04-09T02:21:08;8.27;;;7.22;;
52031;SDS011;38044;45.148;39.604;2023-04-09T02:23:35;10.73;;;8.70;;
52031;SDS011;38044;45.148;39.604;2023-04-09T02:26:01;11.98;;;9.95;;
52031;SDS011;38044;45.148;39.604;2023-04-09T02:28:27;11.40;;;9.13;;
52031;SDS011;38044;45.148;39.604;2023-04-09T02:30:52;10.57;;;9.43;;
52031;SDS011;38044;45.148;39.604;2023-04-09T02:33:18;10.73;;;9.63;;
52031;SDS011;38044;45.148;39.604;2023-04-09T02:35:44;10.95;;;8.52;;
52031;SDS011;38044;45.148;39.604;2023-04-09T02:38:10;13.55;;;8.52;;
52031;SDS011;38044;45.148;39.604;2023-04-09T02:40:40;13.98;;;8.95;;
52031;SDS011;38044;45.148;39.604;2023-04-09T02:43:06;12.90;;;9.02;;
52031;SDS011;38044;45.148;39.604;2023-04-09T02:45:32;12.10;;;8.20;;
52031;SDS011;38044;45.148;39.604;2023-04-09T02:47:58;9.02;;;7.35;;
52031;SDS011;38044;45.148;39.604;2023-04-09T02:50:24;8.55;;;7.05;;
52031;SDS011;38044;45.148;39.604;2023-04-09T02:52:50;10.23;;;8.20;;
52031;SDS011;38044;45.148;39.604;2023-04-09T02:55:18;14.75;;;9.93;;
52031;SDS011;38044;45.148;39.604;2023-04-09T02:57:44;14.68;;;10.30;;
52031;SDS011;38044;45.148;39.604;2023-04-09T03:00:10;15.15;;;10.60;;
52031;SDS011;38044;45.148;39.604;2023-04-09T03:02:37;13.43;;;11.55;;
52031;SDS011;38044;45.148;39.604;2023-04-09T03:05:03;14.13;;;11.15;;
52031;SDS011;38044;45.148;39.604;2023-04-09T03:07:29;12.18;;;8.80;;
52031;SDS011;38044;45.148;39.604;2023-04-09T03:09:55;11.65;;;8.65;;
52031;SDS011;38044;45.148;39.604;2023-04-09T03:12:21;16.30;;;9.30;;
52031;SDS011;38044;45.148;39.604;2023-04-09T03:14:46;12.30;;;8.68;;
52031;SDS011;38044;45.148;39.604;2023-04-09T03:17:12;13.48;;;9.60;;
52031;SDS011;38044;45.148;39.604;2023-04-09T03:19:38;10.65;;;8.50;;
52031;SDS011;38044;45.148;39.604;2023-04-09T03:22:04;10.60;;;9.38;;
52031;SDS011;38044;45.148;39.604;2023-04-09T03:24:30;9.68;;;7.63;;
52031;SDS011;38044;45.148;39.604;2023-04-09T03:26:57;17.60;;;8.88;;
52031;SDS011;38044;45.148;39.604;2023-04-09T03:29:23;13.13;;;9.68;;
52031;SDS011;38044;45.148;39.604;2023-04-09T03:31:48;13.75;;;9.30;;
52031;SDS011;38044;45.148;39.604;2023-04-09T03:34:14;10.85;;;8.20;;
52031;SDS011;38044;45.148;39.604;2023-04-09T03:36:40;11.20;;;8.05;;
52031;SDS011;38044;45.148;39.604;2023-04-09T03:39:06;11.45;;;7.68;;
52031;SDS011;38044;45.148;39.604;2023-04-09T03:41:32;11.68;;;8.65;;
52031;SDS011;38044;45.148;39.604;2023-04-09T03:43:58;11.35;;;7.30;;
52031;SDS011;38044;45.148;39.604;2023-04-09T03:46:23;13.07;;;8.75;;
52031;SDS011;38044;45.148;39.604;2023-04-09T03:48:49;13.75;;;8.07;;
52031;SDS011;38044;45.148;39.604;2023-04-09T03:51:16;15.93;;;8.52;;
52031;SDS011;38044;45.148;39.604;2023-04-09T03:53:42;15.02;;;8.25;;
52031;SDS011;38044;45.148;39.604;2023-04-09T03:56:08;11.55;;;7.13;;
52031;SDS011;38044;45.148;39.604;2023-04-09T03:58:35;11.25;;;7.15;;
52031;SDS011;38044;45.148;39.604;2023-04-09T04:01:01;13.80;;;7.70;;
52031;SDS011;38044;45.148;39.604;2023-04-09T04:03:27;9.60;;;6.15;;
52031;SDS011;38044;45.148;39.604;2023-04-09T04:05:58;9.32;;;6.45;;
52031;SDS011;38044;45.148;39.604;2023-04-09T04:08:25;13.20;;;8.00;;
52031;SDS011;38044;45.148;39.604;2023-04-09T04:10:51;9.23;;;6.47;;
52031;SDS011;38044;45.148;39.604;2023-04-09T04:13:17;7.00;;;5.75;;
52031;SDS011;38044;45.148;39.604;2023-04-09T04:15:43;8.45;;;5.97;;
52031;SDS011;38044;45.148;39.604;2023-04-09T04:18:09;11.38;;;6.03;;
52031;SDS011;38044;45.148;39.604;2023-04-09T04:20:35;9.85;;;6.80;;
52031;SDS011;38044;45.148;39.604;2023-04-09T04:23:02;12.13;;;6.28;;
52031;SDS011;38044;45.148;39.604;2023-04-09T04:25:28;10.85;;;6.15;;
52031;SDS011;38044;45.148;39.604;2023-04-09T04:27:55;10.75;;;7.10;;
52031;SDS011;38044;45.148;39.604;2023-04-09T04:30:21;7.10;;;6.03;;
52031;SDS011;38044;45.148;39.604;2023-04-09T04:32:47;7.45;;;5.53;;
52031;SDS011;38044;45.148;39.604;2023-04-09T04:35:13;9.93;;;6.07;;
52031;SDS011;38044;45.148;39.604;2023-04-09T04:37:39;9.10;;;5.60;;
52031;SDS011;38044;45.148;39.604;2023-04-09T04:40:06;7.72;;;6.05;;
52031;SDS011;38044;45.148;39.604;2023-04-09T04:54:07;5.68;;;4.18;;
52031;SDS011;38044;45.148;39.604;2023-04-09T04:56:33;5.97;;;4.53;;
52031;SDS011;38044;45.148;39.604;2023-04-09T04:58:59;4.80;;;4.28;;
52031;SDS011;38044;45.148;39.604;2023-04-09T05:01:25;5.38;;;4.43;;
52031;SDS011;38044;45.148;39.604;2023-04-09T05:03:50;7.63;;;4.97;;
52031;SDS011;38044;45.148;39.604;2023-04-09T05:06:16;7.93;;;4.68;;
52031;SDS011;38044;45.148;39.604;2023-04-09T05:08:42;5.72;;;4.43;;
52031;SDS011;38044;45.148;39.604;2023-04-09T05:11:10;7.03;;;5.38;;
52031;SDS011;38044;45.148;39.604;2023-04-09T05:13:37;7.68;;;5.30;;
52031;SDS011;38044;45.148;39.604;2023-04-09T05:16:02;5.82;;;4.80;;
52031;SDS011;38044;45.148;39.604;2023-04-09T05:18:28;7.75;;;4.70;;
52031;SDS011;38044;45.148;39.604;2023-04-09T05:20:54;9.10;;;4.70;;
52031;SDS011;38044;45.148;39.604;2023-04-09T05:23:20;6.28;;;3.90;;
52031;SDS011;38044;45.148;39.604;2023-04-09T05:25:49;7.25;;;4.15;;
52031;SDS011;38044;45.148;39.604;2023-04-09T05:28:15;4.80;;;4.00;;
52031;SDS011;38044;45.148;39.604;2023-04-09T05:30:44;7.20;;;4.47;;
52031;SDS011;38044;45.148;39.604;2023-04-09T05:33:11;6.60;;;4.85;;
52031;SDS011;38044;45.148;39.604;2023-04-09T05:35:37;6.40;;;4.90;;
52031;SDS011;38044;45.148;39.604;2023-04-09T05:38:04;6.47;;;4.68;;
52031;SDS011;38044;45.148;39.604;2023-04-09T05:40:29;7.38;;;4.88;;
52031;SDS011;38044;45.148;39.604;2023-04-09T05:42:55;5.35;;;4.30;;
52031;SDS011;38044;45.148;39.604;2023-04-09T05:45:21;6.00;;;4.55;;
52031;SDS011;38044;45.148;39.604;2023-04-09T05:47:49;7.82;;;4.97;;
52031;SDS011;38044;45.148;39.604;2023-04-09T05:50:15;8.32;;;4.93;;
52031;SDS011;38044;45.148;39.604;2023-04-09T05:52:41;7.30;;;5.82;;
52031;SDS011;38044;45.148;39.604;2023-04-09T05:55:07;7.43;;;4.93;;
52031;SDS011;38044;45.148;39.604;2023-04-09T05:57:34;10.10;;;5.72;;
52031;SDS011;38044;45.148;39.604;2023-04-09T06:00:00;7.63;;;5.70;;
52031;SDS011;38044;45.148;39.604;2023-04-09T06:02:27;9.55;;;5.50;;
52031;SDS011;38044;45.148;39.604;2023-04-09T06:04:53;8.02;;;5.40;;
52031;SDS011;38044;45.148;39.604;2023-04-09T06:07:19;7.97;;;5.18;;
52031;SDS011;38044;45.148;39.604;2023-04-09T06:09:45;11.05;;;5.93;;
52031;SDS011;38044;45.148;39.604;2023-04-09T06:12:11;6.93;;;5.18;;
52031;SDS011;38044;45.148;39.604;2023-04-09T06:14:37;9.00;;;6.05;;
52031;SDS011;38044;45.148;39.604;2023-04-09T06:17:03;7.38;;;5.15;;
52031;SDS011;38044;45.148;39.604;2023-04-09T06:19:29;7.65;;;5.20;;
52031;SDS011;38044;45.148;39.604;2023-04-09T06:21:55;6.35;;;5.10;;
52031;SDS011;38044;45.148;39.604;2023-04-09T06:24:21;6.32;;;5.60;;
52031;SDS011;38044;45.148;39.604;2023-04-09T06:26:47;8.43;;;5.50;;
52031;SDS011;38044;45.148;39.604;2023-04-09T06:29:13;7.47;;;5.63;;
52031;SDS011;38044;45.148;39.604;2023-04-09T06:31:39;7.97;;;5.00;;
52031;SDS011;38044;45.148;39.604;2023-04-09T06:34:06;6.82;;;5.00;;
52031;SDS011;38044;45.148;39.604;2023-04-09T06:36:32;8.43;;;6.00;;
52031;SDS011;38044;45.148;39.604;2023-04-09T06:38:58;8.13;;;4.72;;
52031;SDS011;38044;45.148;39.604;2023-04-09T06:41:23;9.07;;;4.88;;
52031;SDS011;38044;45.148;39.604;2023-04-09T06:43:50;6.97;;;4.30;;
52031;SDS011;38044;45.148;39.604;2023-04-09T06:46:17;6.68;;;4.50;;
52031;SDS011;38044;45.148;39.604;2023-04-09T06:48:44;7.20;;;4.45;;
52031;SDS011;38044;45.148;39.604;2023-04-09T06:51:10;5.20;;;4.20;;
52031;SDS011;38044;45.148;39.604;2023-04-09T06:53:37;7.35;;;4.32;;
52031;SDS011;38044;45.148;39.604;2023-04-09T06:56:04;5.93;;;4.40;;
52031;SDS011;38044;45.148;39.604;2023-04-09T06:58:30;4.93;;;4.10;;
52031;SDS011;38044;45.148;39.604;2023-04-09T07:00:56;4.85;;;3.70;;
52031;SDS011;38044;45.148;39.604;2023-04-09T07:03:23;7.05;;;4.30;;
52031;SDS011;38044;45.148;39.604;2023-04-09T07:05:49;5.45;;;4.10;;
52031;SDS011;38044;45.148;39.604;2023-04-09T07:08:16;5.97;;;4.30;;
52031;SDS011;38044;45.148;39.604;2023-04-09T07:10:41;6.40;;;4.45;;
52031;SDS011;38044;45.148;39.604;2023-04-09T07:13:07;7.97;;;4.30;;
52031;SDS011;38044;45.148;39.604;2023-04-09T07:15:36;9.32;;;4.43;;
52031;SDS011;38044;45.148;39.604;2023-04-09T07:18:02;6.03;;;4.43;;
52031;SDS011;38044;45.148;39.604;2023-04-09T07:20:28;5.70;;;4.07;;
52031;SDS011;38044;45.148;39.604;2023-04-09T07:22:54;6.57;;;3.90;;
52031;SDS011;38044;45.148;39.604;2023-04-09T07:25:20;8.48;;;4.43;;
52031;SDS011;38044;45.148;39.604;2023-04-09T07:27:46;8.40;;;3.95;;
52031;SDS011;38044;45.148;39.604;2023-04-09T07:30:12;4.50;;;3.80;;
52031;SDS011;38044;45.148;39.604;2023-04-09T07:32:37;4.10;;;3.28;;
52031;SDS011;38044;45.148;39.604;2023-04-09T07:35:05;4.93;;;3.50;;
52031;SDS011;38044;45.148;39.604;2023-04-09T07:37:33;5.00;;;3.50;;
52031;SDS011;38044;45.148;39.604;2023-04-09T07:40:00;4.35;;;3.53;;
52031;SDS011;38044;45.148;39.604;2023-04-09T07:42:28;5.00;;;3.28;;
52031;SDS011;38044;45.148;39.604;2023-04-09T07:44:54;5.53;;;3.67;;
52031;SDS011;38044;45.148;39.604;2023-04-09T07:47:21;5.60;;;3.70;;
52031;SDS011;38044;45.148;39.604;2023-04-09T07:49:47;5.32;;;4.05;;
52031;SDS011;38044;45.148;39.604;2023-04-09T07:52:14;6.03;;;4.10;;
52031;SDS011;38044;45.148;39.604;2023-04-09T07:54:40;4.75;;;3.88;;
52031;SDS011;38044;45.148;39.604;2023-04-09T07:57:10;6.22;;;4.53;;
52031;SDS011;38044;45.148;39.604;2023-04-09T08:02:53;4.72;;;4.00;;
52031;SDS011;38044;45.148;39.604;2023-04-09T08:05:20;5.00;;;3.97;;
52031;SDS011;38044;45.148;39.604;2023-04-09T08:07:46;4.22;;;3.67;;
52031;SDS011;38044;45.148;39.604;2023-04-09T08:10:12;6.65;;;3.88;;
52031;SDS011;38044;45.148;39.604;2023-04-09T08:12:40;5.97;;;4.15;;
52031;SDS011;38044;45.148;39.604;2023-04-09T08:15:06;4.68;;;3.78;;
52031;SDS011;38044;45.148;39.604;2023-04-09T08:17:32;4.30;;;3.38;;
52031;SDS011;38044;45.148;39.604;2023-04-09T08:20:01;5.20;;;4.28;;
52031;SDS011;38044;45.148;39.604;2023-04-09T08:22:27;3.95;;;3.45;;
52031;SDS011;38044;45.148;39.604;2023-04-09T08:24:55;4.82;;;3.20;;
52031;SDS011;38044;45.148;39.604;2023-04-09T08:27:22;3.90;;;2.70;;
52031;SDS011;38044;45.148;39.604;2023-04-09T08:29:49;3.95;;;3.15;;
52031;SDS011;38044;45.148;39.604;2023-04-09T08:32:15;2.88;;;2.30;;
52031;SDS011;38044;45.148;39.604;2023-04-09T08:34:40;4.15;;;2.75;;
52031;SDS011;38044;45.148;39.604;2023-04-09T08:37:07;3.83;;;1.90;;
52031;SDS011;38044;45.148;39.604;2023-04-09T08:39:32;3.08;;;2.13;;
52031;SDS011;38044;45.148;39.604;2023-04-09T08:42:00;2.03;;;1.50;;
52031;SDS011;38044;45.148;39.604;2023-04-09T08:44:27;2.08;;;1.80;;
52031;SDS011;38044;45.148;39.604;2023-04-09T08:46:55;2.53;;;1.90;;
52031;SDS011;38044;45.148;39.604;2023-04-09T08:49:21;2.80;;;2.22;;
52031;SDS011;38044;45.148;39.604;2023-04-09T08:51:47;1.83;;;1.50;;
52031;SDS011;38044;45.148;39.604;2023-04-09T08:54:14;1.50;;;1.25;;
52031;SDS011;38044;45.148;39.604;2023-04-09T08:56:42;2.13;;;1.92;;
52031;SDS011;38044;45.148;39.604;2023-04-09T08:59:09;2.15;;;1.95;;
52031;SDS011;38044;45.148;39.604;2023-04-09T09:01:45;2.00;;;1.80;;
52031;SDS011;38044;45.148;39.604;2023-04-09T09:04:16;2.03;;;1.80;;
52031;SDS011;38044;45.148;39.604;2023-04-09T09:06:42;2.17;;;1.80;;
52031;SDS011;38044;45.148;39.604;2023-04-09T09:11:37;2.67;;;2.10;;
52031;SDS011;38044;45.148;39.604;2023-04-09T09:14:06;2.00;;;1.77;;
52031;SDS011;38044;45.148;39.604;2023-04-09T09:16:33;4.05;;;2.15;;
52031;SDS011;38044;45.148;39.604;2023-04-09T09:19:00;2.35;;;1.80;;
52031;SDS011;38044;45.148;39.604;2023-04-09T09:21:27;2.78;;;2.15;;
52031;SDS011;38044;45.148;39.604;2023-04-09T09:23:54;1.83;;;1.73;;
52031;SDS011;38044;45.148;39.604;2023-04-09T09:26:21;2.85;;;2.17;;
52031;SDS011;38044;45.148;39.604;2023-04-09T09:28:51;2.92;;;2.08;;
52031;SDS011;38044;45.148;39.604;2023-04-09T09:31:18;4.85;;;3.15;;
52031;SDS011;38044;45.148;39.604;2023-04-09T09:33:45;2.80;;;1.90;;
52031;SDS011;38044;45.148;39.604;2023-04-09T09:36:12;2.42;;;2.20;;
52031;SDS011;38044;45.148;39.604;2023-04-09T09:38:52;3.00;;;2.70;;
52031;SDS011;38044;45.148;39.604;2023-04-09T09:41:22;7.57;;;6.07;;
52031;SDS011;38044;45.148;39.604;2023-04-09T09:43:50;8.60;;;7.28;;
52031;SDS011;38044;45.148;39.604;2023-04-09T09:46:16;4.00;;;2.78;;
52031;SDS011;38044;45.148;39.604;2023-04-09T09:48:42;2.63;;;2.40;;
52031;SDS011;38044;45.148;39.604;2023-04-09T09:51:11;3.30;;;2.47;;
52031;SDS011;38044;45.148;39.604;2023-04-09T09:53:39;2.95;;;2.67;;
52031;SDS011;38044;45.148;39.604;2023-04-09T09:56:11;2.17;;;1.95;;
52031;SDS011;38044;45.148;39.604;2023-04-09T09:58:41;3.30;;;2.20;;
52031;SDS011;38044;45.148;39.604;2023-04-09T10:01:13;3.40;;;2.35;;
52031;SDS011;38044;45.148;39.604;2023-04-09T10:03:43;3.33;;;2.30;;
52031;SDS011;38044;45.148;39.604;2023-04-09T10:06:11;13.73;;;9.23;;
52031;SDS011;38044;45.148;39.604;2023-04-09T10:08:39;8.63;;;5.18;;
52031;SDS011;38044;45.148;39.604;2023-04-09T10:11:06;8.23;;;6.20;;
52031;SDS011;38044;45.148;39.604;2023-04-09T10:13:40;3.42;;;3.13;;
52031;SDS011;38044;45.148;39.604;2023-04-09T10:16:09;2.92;;;2.05;;
52031;SDS011;38044;45.148;39.604;2023-04-09T10:18:35;4.10;;;2.95;;
52031;SDS011;38044;45.148;39.604;2023-04-09T10:23:38;3.53;;;2.28;;
52031;SDS011;38044;45.148;39.604;2023-04-09T10:26:06;3.13;;;2.15;;
52031;SDS011;38044;45.148;39.604;2023-04-09T10:28:33;3.15;;;2.20;;
52031;SDS011;38044;45.148;39.604;2023-04-09T10:31:01;4.10;;;2.33;;
52031;SDS011;38044;45.148;39.604;2023-04-09T10:33:29;2.50;;;2.30;;
52031;SDS011;38044;45.148;39.604;2023-04-09T10:36:02;3.00;;;2.70;;
52031;SDS011;38044;45.148;39.604;2023-04-09T10:38:40;4.07;;;2.85;;
52031;SDS011;38044;45.148;39.604;2023-04-09T10:41:20;3.53;;;2.30;;
52031;SDS011;38044;45.148;39.604;2023-04-09T10:43:49;5.28;;;3.55;;
52031;SDS011;38044;45.148;39.604;2023-04-09T10:46:33;3.53;;;2.90;;
52031;SDS011;38044;45.148;39.604;2023-04-09T10:49:10;4.70;;;2.50;;
52031;SDS011;38044;45.148;39.604;2023-04-09T10:51:38;3.55;;;2.92;;
52031;SDS011;38044;45.148;39.604;2023-04-09T10:54:04;2.63;;;2.20;;
52031;SDS011;38044;45.148;39.604;2023-04-09T10:56:31;4.95;;;2.90;;
52031;SDS011;38044;45.148;39.604;2023-04-09T10:59:08;3.10;;;2.67;;
52031;SDS011;38044;45.148;39.604;2023-04-09T11:01:33;5.35;;;2.55;;
52031;SDS011;38044;45.148;39.604;2023-04-09T11:04:12;5.53;;;2.47;;
52031;SDS011;38044;45.148;39.604;2023-04-09T11:06:44;2.90;;;2.10;;
52031;SDS011;38044;45.148;39.604;2023-04-09T11:09:12;5.05;;;2.80;;
52031;SDS011;38044;45.148;39.604;2023-04-09T11:11:38;4.30;;;3.33;;
52031;SDS011;38044;45.148;39.604;2023-04-09T11:14:04;3.30;;;2.80;;
52031;SDS011;38044;45.148;39.604;2023-04-09T11:16:30;3.92;;;2.20;;
52031;SDS011;38044;45.148;39.604;2023-04-09T11:18:56;3.33;;;2.45;;
52031;SDS011;38044;45.148;39.604;2023-04-09T11:21:25;4.47;;;3.13;;
52031;SDS011;38044;45.148;39.604;2023-04-09T11:23:52;12.48;;;7.68;;
52031;SDS011;38044;45.148;39.604;2023-04-09T11:26:24;12.00;;;7.45;;
52031;SDS011;38044;45.148;39.604;2023-04-09T11:29:09;4.28;;;3.30;;
52031;SDS011;38044;45.148;39.604;2023-04-09T11:31:35;3.97;;;2.60;;
52031;SDS011;38044;45.148;39.604;2023-04-09T11:34:01;4.55;;;2.67;;
52031;SDS011;38044;45.148;39.604;2023-04-09T11:36:27;4.07;;;2.63;;
52031;SDS011;38044;45.148;39.604;2023-04-09T11:38:54;3.35;;;2.55;;
52031;SDS011;38044;45.148;39.604;2023-04-09T11:41:36;4.07;;;2.75;;
52031;SDS011;38044;45.148;39.604;2023-04-09T11:44:02;3.07;;;2.47;;
52031;SDS011;38044;45.148;39.604;2023-04-09T11:46:32;3.90;;;3.17;;
52031;SDS011;38044;45.148;39.604;2023-04-09T11:49:00;2.85;;;2.30;;
52031;SDS011;38044;45.148;39.604;2023-04-09T11:51:27;3.88;;;2.42;;
52031;SDS011;38044;45.148;39.604;2023-04-09T11:53:58;4.50;;;2.67;;
52031;SDS011;38044;45.148;39.604;2023-04-09T11:56:31;3.90;;;2.67;;
52031;SDS011;38044;45.148;39.604;2023-04-09T11:58:57;4.63;;;2.60;;
52031;SDS011;38044;45.148;39.604;2023-04-09T12:01:23;38.97;;;4.35;;
52031;SDS011;38044;45.148;39.604;2023-04-09T12:03:53;3.92;;;2.60;;
52031;SDS011;38044;45.148;39.604;2023-04-09T12:06:19;3.70;;;2.60;;
52031;SDS011;38044;45.148;39.604;2023-04-09T12:08:51;3.33;;;2.50;;
52031;SDS011;38044;45.148;39.604;2023-04-09T12:11:17;3.83;;;2.38;;
52031;SDS011;38044;45.148;39.604;2023-04-09T12:13:44;3.42;;;2.53;;
52031;SDS011;38044;45.148;39.604;2023-04-09T12:16:11;3.92;;;1.90;;
52031;SDS011;38044;45.148;39.604;2023-04-09T12:18:37;3.03;;;2.20;;
52031;SDS011;38044;45.148;39.604;2023-04-09T12:21:04;4.93;;;2.40;;
52031;SDS011;38044;45.148;39.604;2023-04-09T12:23:30;2.95;;;2.30;;
52031;SDS011;38044;45.148;39.604;2023-04-09T12:25:56;3.03;;;2.70;;
52031;SDS011;38044;45.148;39.604;2023-04-09T12:28:26;3.15;;;2.05;;
52031;SDS011;38044;45.148;39.604;2023-04-09T12:30:52;3.28;;;2.88;;
52031;SDS011;38044;45.148;39.604;2023-04-09T12:33:19;3.90;;;2.55;;
52031;SDS011;38044;45.148;39.604;2023-04-09T12:35:46;3.78;;;2.28;;
52031;SDS011;38044;45.148;39.604;2023-04-09T12:38:11;5.60;;;4.20;;
52031;SDS011;38044;45.148;39.604;2023-04-09T12:40:38;4.47;;;3.80;;
52031;SDS011;38044;45.148;39.604;2023-04-09T12:43:04;7.30;;;4.35;;
52031;SDS011;38044;45.148;39.604;2023-04-09T12:45:30;5.68;;;3.85;;
52031;SDS011;38044;45.148;39.604;2023-04-09T12:47:57;6.15;;;4.05;;
52031;SDS011;38044;45.148;39.604;2023-04-09T12:50:23;5.55;;;4.10;;
52031;SDS011;38044;45.148;39.604;2023-04-09T12:52:49;6.15;;;4.18;;
52031;SDS011;38044;45.148;39.604;2023-04-09T12:55:15;7.05;;;4.72;;
52031;SDS011;38044;45.148;39.604;2023-04-09T12:57:42;7.68;;;5.60;;
52031;SDS011;38044;45.148;39.604;2023-04-09T13:00:10;5.20;;;3.58;;
52031;SDS011;38044;45.148;39.604;2023-04-09T13:02:36;14.88;;;8.05;;
52031;SDS011;38044;45.148;39.604;2023-04-09T13:05:02;5.65;;;4.32;;
52031;SDS011;38044;45.148;39.604;2023-04-09T13:07:31;6.30;;;4.03;;
52031;SDS011;38044;45.148;39.604;2023-04-09T13:09:57;6.20;;;4.28;;
52031;SDS011;38044;45.148;39.604;2023-04-09T13:12:23;5.40;;;4.82;;
52031;SDS011;38044;45.148;39.604;2023-04-09T13:14:50;4.97;;;4.47;;
52031;SDS011;38044;45.148;39.604;2023-04-09T13:17:17;5.68;;;3.78;;
52031;SDS011;38044;45.148;39.604;2023-04-09T13:19:43;4.45;;;3.30;;
52031;SDS011;38044;45.148;39.604;2023-04-09T13:22:10;8.32;;;3.90;;
52031;SDS011;38044;45.148;39.604;2023-04-09T13:24:36;5.68;;;3.80;;
52031;SDS011;38044;45.148;39.604;2023-04-09T13:27:05;4.93;;;3.80;;
52031;SDS011;38044;45.148;39.604;2023-04-09T13:29:33;10.38;;;7.93;;
52031;SDS011;38044;45.148;39.604;2023-04-09T13:31:59;10.45;;;7.13;;
52031;SDS011;38044;45.148;39.604;2023-04-09T13:34:31;6.90;;;4.03;;
52031;SDS011;38044;45.148;39.604;2023-04-09T13:36:57;6.82;;;4.40;;
52031;SDS011;38044;45.148;39.604;2023-04-09T13:39:23;5.60;;;3.92;;
52031;SDS011;38044;45.148;39.604;2023-04-09T13:41:49;6.40;;;4.60;;
52031;SDS011;38044;45.148;39.604;2023-04-09T13:44:15;7.90;;;5.55;;
52031;SDS011;38044;45.148;39.604;2023-04-09T13:46:41;6.82;;;5.40;;
52031;SDS011;38044;45.148;39.604;2023-04-09T13:49:06;6.00;;;4.32;;
52031;SDS011;38044;45.148;39.604;2023-04-09T13:51:32;4.82;;;3.92;;
52031;SDS011;38044;45.148;39.604;2023-04-09T13:53:58;6.03;;;3.97;;
52031;SDS011;38044;45.148;39.604;2023-04-09T13:56:24;5.85;;;4.43;;
52031;SDS011;38044;45.148;39.604;2023-04-09T13:58:51;5.82;;;3.47;;
52031;SDS011;38044;45.148;39.604;2023-04-09T14:01:17;7.15;;;3.85;;
52031;SDS011;38044;45.148;39.604;2023-04-09T14:03:43;6.18;;;4.20;;
52031;SDS011;38044;45.148;39.604;2023-04-09T14:06:09;7.15;;;3.88;;
52031;SDS011;38044;45.148;39.604;2023-04-09T14:08:37;6.43;;;4.05;;
52031;SDS011;38044;45.148;39.604;2023-04-09T14:11:03;5.80;;;4.60;;
52031;SDS011;38044;45.148;39.604;2023-04-09T14:13:29;4.47;;;3.70;;
52031;SDS011;38044;45.148;39.604;2023-04-09T14:15:55;5.88;;;3.72;;
52031;SDS011;38044;45.148;39.604;2023-04-09T14:18:21;5.35;;;3.72;;
52031;SDS011;38044;45.148;39.604;2023-04-09T14:20:47;4.57;;;3.70;;
52031;SDS011;38044;45.148;39.604;2023-04-09T14:23:12;4.68;;;3.38;;
52031;SDS011;38044;45.148;39.604;2023-04-09T14:25:38;9.50;;;4.05;;
52031;SDS011;38044;45.148;39.604;2023-04-09T14:28:04;4.97;;;3.50;;
52031;SDS011;38044;45.148;39.604;2023-04-09T14:30:30;6.22;;;3.90;;
52031;SDS011;38044;45.148;39.604;2023-04-09T14:32:56;4.05;;;2.80;;
52031;SDS011;38044;45.148;39.604;2023-04-09T14:35:22;4.28;;;3.28;;
52031;SDS011;38044;45.148;39.604;2023-04-09T14:37:48;4.68;;;3.42;;
52031;SDS011;38044;45.148;39.604;2023-04-09T14:40:14;6.65;;;3.55;;
52031;SDS011;38044;45.148;39.604;2023-04-09T14:42:40;6.05;;;3.83;;
52031;SDS011;38044;45.148;39.604;2023-04-09T14:45:06;5.35;;;3.20;;
52031;SDS011;38044;45.148;39.604;2023-04-09T14:47:32;7.70;;;4.57;;
52031;SDS011;38044;45.148;39.604;2023-04-09T14:49:58;5.03;;;3.08;;
52031;SDS011;38044;45.148;39.604;2023-04-09T14:52:24;4.47;;;3.35;;
52031;SDS011;38044;45.148;39.604;2023-04-09T14:54:50;4.75;;;3.40;;
52031;SDS011;38044;45.148;39.604;2023-04-09T14:57:16;4.43;;;3.58;;
52031;SDS011;38044;45.148;39.604;2023-04-09T14:59:41;4.38;;;3.33;;
52031;SDS011;38044;45.148;39.604;2023-04-09T15:02:07;4.35;;;3.17;;
52031;SDS011;38044;45.148;39.604;2023-04-09T15:04:33;4.68;;;3.65;;